PAWDPATK

Guest
Details From PAWD - SEWARD
To PATK - TALKEETNA
Flight Number -
Tags decoded
Created
Modified
Stats Distance 135 nm / 250 km
Max Altitude 0 ft / 0 m
Waypoints 6
Social Downloads 2
Likes 0
Share VATSIM

Download

Looking for another format? Having issues loading an existing format? Contact us
Advertisement - Login to hide

Notes

Requested: PAWD SEWAR V441 TED V456 BGQ V491 URTOW PATK Unmatched points: V441 V456

Route

PAWD SEWAR TED BGQ V491 URTOW PATK

ID Type Via Altitude Latitude Longitude Leg Dist Tot Dist Heading (true) Name
O PAWD APT - 0 ft / 0 m 60.12984˚ -149.41952˚ - 0 nm - SEWARD
SEWAR FIX - 0 ft / 0 m 60.26680˚ -149.66772˚ 11 nm 11 nm 318° / 318° -
TED VOR - 0 ft / 0 m 61.16786˚ -149.96014˚ 54 nm 65 nm 351° / 351° ANCHORAGE VOR-DME
BGQ VOR - 0 ft / 0 m 61.56944˚ -149.96714˚ 24 nm 89 nm 360° / 360° BIG LAKE VORTAC
URTOW FIX V491 (AWY-LO) 0 ft / 0 m 62.06695˚ -150.06091˚ 29 nm 119 nm 355° / 355° -
O PATK APT - 0 ft / 0 m 62.32051˚ -150.09369˚ 15 nm 135 nm 357° / 357° TALKEETNA

Altitude Profile

Advertisement - Login to hide

PAWD

Details ICAO PAWD
Name SEWARD
Region USA (Alaska)
Timezone America/Anchorage (UTC-9.0)
Stats Elevation 22 ft / 7 m (AMSL)
Location 60.129844° -149.419515°
Runways 2
Magnetic Variation 16.260° E

METAR

PAWD 130453Z AUTO 21014KT 10SM OVC050 07/03 A2987 RMK AO2 PK WND 19028/0403 SLP115 T00720033 TSNO

Decode

TAF

Not found

Departure Runways

ID Width Length Bearing (true) Bearing (mag) Surface Threshold Offset Overrun Length
12 100 ft / 30 m 4,228 ft / 1,289 m 143.67° 127.41° Asphalt 0 ft / 0 m 0 ft / 0 m
15 75 ft / 23 m 2,280 ft / 695 m 170.13° 153.87° Asphalt 0 ft / 0 m 0 ft / 0 m
30 100 ft / 30 m 4,228 ft / 1,289 m 323.68° 307.42° Asphalt 0 ft / 0 m 0 ft / 0 m
33 75 ft / 23 m 2,280 ft / 695 m 350.13° 333.87° Asphalt 0 ft / 0 m 0 ft / 0 m

PATK

Details ICAO PATK (TKA)
Name TALKEETNA
Region USA (Alaska)
Timezone America/Anchorage (UTC-9.0)
Stats Elevation 358 ft / 109 m (AMSL)
Location 62.320512° -150.093685°
Runways 1
Magnetic Variation 16.357° E

METAR

PATK 130453Z AUTO 01007KT 10SM OVC085 03/M05 A2988 RMK AO2 SLP123 T00331050 TSNO $

Decode

TAF

PATK 122334Z 1300/1324 03008KT P6SM OVC080 FM131000 02012G18KT P6SM BKN150 FM131600 02009KT P6SM SCT045 BKN060 FM132000 VRB04KT P6SM BKN080

Decode

Destination Runways

ID Width Length Bearing (true) Bearing (mag) Surface Threshold Offset Overrun Length
18 75 ft / 23 m 3,503 ft / 1,068 m 207.01° 190.65° Asphalt 0 ft / 0 m 0 ft / 0 m
36 75 ft / 23 m 3,503 ft / 1,068 m 27.01° 10.65° Asphalt 0 ft / 0 m 0 ft / 0 m

Popular Alternatives